createdAt,value
2023-07-03T00:01:59.813Z,3.90
2023-07-03T00:04:36.823Z,4.40
2023-07-03T00:07:07.273Z,4.37
2023-07-03T00:09:37.057Z,3.97
2023-07-03T00:12:07.195Z,4.68
2023-07-03T00:14:36.940Z,4.57
2023-07-03T00:17:08.914Z,4.40
2023-07-03T00:19:41.341Z,4.10
2023-07-03T00:22:11.192Z,4.50
2023-07-03T00:24:40.924Z,4.03
2023-07-03T00:27:11.031Z,4.32
2023-07-03T00:29:40.804Z,4.07
2023-07-03T00:32:11.535Z,4.65
2023-07-03T00:34:44.069Z,5.38
2023-07-03T00:37:15.608Z,4.67
2023-07-03T00:39:45.574Z,5.00
2023-07-03T00:42:15.388Z,4.20
2023-07-03T00:44:45.145Z,4.32
2023-07-03T00:47:15.561Z,4.78
2023-07-03T00:49:47.990Z,3.78
2023-07-03T00:52:18.829Z,4.20
2023-07-03T00:54:48.693Z,4.80
2023-07-03T00:57:20.108Z,4.35
2023-07-03T00:59:49.893Z,4.53
2023-07-03T01:02:23.436Z,4.03
2023-07-03T01:04:59.663Z,4.50
2023-07-03T01:07:31.242Z,4.25
2023-07-03T01:10:05.050Z,4.50
2023-07-03T01:12:37.790Z,5.25
2023-07-03T01:15:13.124Z,4.05
2023-07-03T01:17:44.778Z,4.43
2023-07-03T01:20:19.592Z,4.03
2023-07-03T01:22:53.308Z,4.40
2023-07-03T01:25:27.806Z,4.30
2023-07-03T01:28:00.236Z,4.00
2023-07-03T01:30:31.323Z,4.80
2023-07-03T01:33:01.860Z,4.10
2023-07-03T01:35:32.020Z,3.88
2023-07-03T01:38:02.412Z,4.30
2023-07-03T01:40:35.220Z,4.50
2023-07-03T01:43:05.526Z,4.20
2023-07-03T01:45:37.532Z,4.53
2023-07-03T01:48:07.886Z,4.03
2023-07-03T01:50:38.973Z,4.30
2023-07-03T01:53:12.142Z,4.60
2023-07-03T01:55:50.642Z,4.90
2023-07-03T01:58:27.154Z,4.28
2023-07-03T02:01:00.287Z,4.90
2023-07-03T02:03:34.965Z,4.85
2023-07-03T02:06:07.751Z,4.30
2023-07-03T02:08:37.675Z,4.85
2023-07-03T02:11:16.649Z,4.90
2023-07-03T02:13:49.189Z,4.70
2023-07-03T02:16:19.921Z,4.90
2023-07-03T02:18:50.751Z,4.47
2023-07-03T02:21:21.100Z,5.20
2023-07-03T02:23:51.279Z,5.10
2023-07-03T02:26:23.690Z,4.90
2023-07-03T02:28:53.575Z,4.37
2023-07-03T02:31:23.450Z,4.63
2023-07-03T02:33:53.252Z,5.05
2023-07-03T02:36:25.679Z,4.90
2023-07-03T02:38:55.605Z,4.97
2023-07-03T02:41:27.969Z,4.78
2023-07-03T02:43:59.711Z,4.88
2023-07-03T02:46:32.896Z,4.88
2023-07-03T02:49:02.732Z,4.40
2023-07-03T02:51:32.807Z,5.10
2023-07-03T02:54:07.083Z,4.50
2023-07-03T02:56:40.548Z,4.68
2023-07-03T02:59:10.544Z,5.63
2023-07-03T03:01:40.680Z,4.63
2023-07-03T03:04:10.696Z,4.22
2023-07-03T03:06:40.556Z,5.05
2023-07-03T03:09:10.733Z,4.70
2023-07-03T03:11:43.894Z,4.45
2023-07-03T03:14:15.587Z,4.40
2023-07-03T03:16:45.630Z,4.72
2023-07-03T03:19:15.396Z,4.68
2023-07-03T03:21:45.217Z,4.57
2023-07-03T03:24:15.043Z,5.35
2023-07-03T03:26:47.482Z,4.87
2023-07-03T03:29:17.983Z,4.53
2023-07-03T03:31:47.913Z,4.70
2023-07-03T03:34:18.000Z,4.10
2023-07-03T03:36:47.868Z,4.77
2023-07-03T03:39:17.650Z,5.40
2023-07-03T03:41:50.506Z,4.45
2023-07-03T03:44:20.482Z,4.60
2023-07-03T03:46:51.253Z,4.85
2023-07-03T03:49:21.127Z,5.83
2023-07-03T03:51:51.991Z,4.68
2023-07-03T03:54:22.862Z,5.15
2023-07-03T03:56:55.361Z,5.80
2023-07-03T03:59:25.690Z,4.93
2023-07-03T04:01:55.781Z,4.80
2023-07-03T04:04:25.696Z,4.82
2023-07-03T04:06:55.625Z,5.07
2023-07-03T04:09:25.348Z,5.00
2023-07-03T04:11:57.621Z,4.87
2023-07-03T04:14:27.479Z,5.30
2023-07-03T04:16:58.739Z,5.03
2023-07-03T04:19:31.393Z,5.90
2023-07-03T04:22:02.118Z,4.68
2023-07-03T04:24:31.890Z,5.38
2023-07-03T04:27:04.582Z,5.13
2023-07-03T04:29:34.651Z,5.55
2023-07-03T04:32:04.477Z,4.63
2023-07-03T04:34:34.329Z,5.37
2023-07-03T04:37:04.687Z,5.40
2023-07-03T04:39:34.784Z,5.90
2023-07-03T04:42:08.935Z,4.72
2023-07-03T04:44:38.757Z,5.28
2023-07-03T04:47:09.109Z,5.60
2023-07-03T04:49:39.188Z,5.57
2023-07-03T04:52:10.475Z,5.33
2023-07-03T04:54:40.804Z,4.80
2023-07-03T04:57:13.666Z,5.93
2023-07-03T04:59:44.790Z,5.63
2023-07-03T05:02:18.570Z,4.68
2023-07-03T05:04:48.589Z,5.88
2023-07-03T05:07:21.663Z,4.60
2023-07-03T05:09:51.438Z,5.07
2023-07-03T05:12:24.060Z,5.90
2023-07-03T05:14:53.884Z,5.95
2023-07-03T05:17:23.584Z,5.97
2023-07-03T05:19:54.331Z,5.93
2023-07-03T05:22:24.161Z,4.95
2023-07-03T05:24:54.023Z,5.55
2023-07-03T05:27:26.418Z,6.03
2023-07-03T05:29:56.243Z,6.15
2023-07-03T05:32:26.012Z,5.40
2023-07-03T05:34:55.810Z,5.40
2023-07-03T05:37:25.974Z,5.97
2023-07-03T05:39:56.890Z,5.75
2023-07-03T05:42:29.392Z,5.60
2023-07-03T05:44:59.293Z,5.85
2023-07-03T05:47:29.230Z,5.80
2023-07-03T05:49:59.387Z,5.20
2023-07-03T05:52:29.189Z,5.90
2023-07-03T05:54:59.514Z,6.30
2023-07-03T05:57:31.801Z,5.50
2023-07-03T06:00:01.878Z,5.25
2023-07-03T06:02:31.660Z,5.43
2023-07-03T06:05:01.510Z,4.97
2023-07-03T06:07:31.400Z,4.90
2023-07-03T06:10:01.329Z,5.85
2023-07-03T06:12:33.726Z,5.80
2023-07-03T06:15:04.684Z,4.97
2023-07-03T06:17:34.500Z,5.32
2023-07-03T06:20:04.331Z,5.70
2023-07-03T06:22:34.116Z,6.10
2023-07-03T06:25:03.888Z,6.15
2023-07-03T06:27:36.319Z,5.32
2023-07-03T06:30:06.734Z,5.00
2023-07-03T06:32:36.494Z,5.23
2023-07-03T06:35:07.154Z,5.97
2023-07-03T06:37:38.213Z,5.97
2023-07-03T06:40:10.720Z,6.32
2023-07-03T06:42:43.215Z,5.35
2023-07-03T06:45:19.809Z,5.30
2023-07-03T06:47:49.662Z,5.93
2023-07-03T06:50:19.530Z,4.93
2023-07-03T06:52:50.882Z,5.05
2023-07-03T06:55:20.860Z,5.17
2023-07-03T06:57:53.156Z,6.28
2023-07-03T07:00:23.666Z,5.60
2023-07-03T07:02:53.525Z,5.50
2023-07-03T07:05:23.440Z,6.28
2023-07-03T07:07:53.286Z,5.50
2023-07-03T07:10:25.526Z,6.05
2023-07-03T07:12:58.004Z,5.23
2023-07-03T07:15:27.925Z,6.07
2023-07-03T07:17:57.693Z,5.90
2023-07-03T07:20:27.621Z,5.50
2023-07-03T07:22:57.348Z,5.37
2023-07-03T07:25:27.150Z,5.28
2023-07-03T07:27:59.613Z,6.40
2023-07-03T07:30:29.692Z,5.50
2023-07-03T07:32:59.497Z,5.63
2023-07-03T07:35:29.355Z,5.53
2023-07-03T07:37:59.086Z,5.60
2023-07-03T07:40:28.830Z,6.82
2023-07-03T07:43:01.215Z,5.65
2023-07-03T07:45:31.309Z,5.45
2023-07-03T07:48:01.155Z,5.18
2023-07-03T07:50:31.838Z,5.15
2023-07-03T07:53:01.671Z,5.68
2023-07-03T07:55:31.629Z,6.00
2023-07-03T07:58:04.001Z,5.57
2023-07-03T08:00:35.880Z,5.97
2023-07-03T08:03:09.516Z,5.47
2023-07-03T08:05:40.209Z,4.60
2023-07-03T08:08:10.056Z,4.40
2023-07-03T08:10:39.726Z,5.35
2023-07-03T08:13:12.106Z,5.87
2023-07-03T08:15:41.867Z,5.43
2023-07-03T08:18:11.836Z,5.18
2023-07-03T08:20:41.651Z,4.90
2023-07-03T08:23:11.400Z,6.10
2023-07-03T08:25:41.228Z,4.85
2023-07-03T08:28:13.947Z,4.80
2023-07-03T08:30:43.767Z,5.18
2023-07-03T08:33:13.613Z,5.07
2023-07-03T08:38:16.504Z,4.97
2023-07-03T08:40:46.403Z,4.80
2023-07-03T08:43:22.322Z,4.78
2023-07-03T08:45:53.361Z,5.40
2023-07-03T08:48:25.241Z,5.10
2023-07-03T08:50:57.191Z,4.80
2023-07-03T08:53:30.635Z,5.25
2023-07-03T08:56:05.076Z,4.77
2023-07-03T08:58:37.501Z,5.53
2023-07-03T09:01:10.887Z,4.60
2023-07-03T09:03:49.025Z,6.20
2023-07-03T09:06:23.378Z,4.50
2023-07-03T09:08:59.988Z,4.70
2023-07-03T09:11:30.534Z,5.75
2023-07-03T09:14:04.694Z,5.28
2023-07-03T09:16:34.928Z,4.43
2023-07-03T09:19:07.104Z,4.05
2023-07-03T09:21:38.313Z,4.38
2023-07-03T09:24:13.756Z,4.32
2023-07-03T09:26:47.975Z,4.78
2023-07-03T09:29:20.856Z,4.47
2023-07-03T09:31:51.002Z,3.90
2023-07-03T09:34:20.843Z,4.38
2023-07-03T09:37:00.301Z,4.40
2023-07-03T09:39:30.580Z,3.47
2023-07-03T09:42:09.095Z,3.67
2023-07-03T09:44:44.592Z,4.43
2023-07-03T09:47:20.980Z,3.63
2023-07-03T09:49:51.000Z,3.93
2023-07-03T09:52:20.846Z,4.13
2023-07-03T09:54:51.137Z,4.60
2023-07-03T09:57:27.952Z,4.55
2023-07-03T10:00:16.043Z,4.05
2023-07-03T10:07:53.395Z,3.42
2023-07-03T10:13:01.075Z,3.90
2023-07-03T10:15:37.245Z,3.80
2023-07-03T10:18:09.835Z,4.18
2023-07-03T10:20:45.214Z,3.60
2023-07-03T10:23:20.111Z,4.25
2023-07-03T10:25:54.723Z,3.90
2023-07-03T10:28:27.731Z,3.60
2023-07-03T10:31:02.990Z,3.10
2023-07-03T10:33:36.489Z,3.90
2023-07-03T10:36:09.233Z,3.22
2023-07-03T10:38:44.977Z,3.78
2023-07-03T10:41:18.857Z,3.70
2023-07-03T10:43:54.169Z,3.60
2023-07-03T10:46:31.165Z,4.30
2023-07-03T10:49:04.346Z,3.95
2023-07-03T10:51:41.163Z,3.58
2023-07-03T10:54:15.092Z,3.58
2023-07-03T10:56:49.017Z,3.70
2023-07-03T10:59:23.801Z,3.50
2023-07-03T11:02:03.796Z,3.70
2023-07-03T11:04:41.081Z,3.20
2023-07-03T11:07:17.416Z,3.22
2023-07-03T11:09:55.398Z,3.03
2023-07-03T11:12:30.264Z,2.90
2023-07-03T11:15:15.082Z,3.10
2023-07-03T11:23:16.100Z,3.55
2023-07-03T11:28:31.112Z,3.40
2023-07-03T11:31:02.970Z,3.75
2023-07-03T11:36:09.853Z,3.70
2023-07-03T11:43:51.824Z,4.03
2023-07-03T11:46:25.682Z,4.33
2023-07-03T11:49:02.434Z,3.60
2023-07-03T11:51:39.603Z,4.47
2023-07-03T11:54:21.555Z,4.22
2023-07-03T11:56:57.264Z,4.53
2023-07-03T11:59:35.951Z,4.85
2023-07-03T12:02:48.258Z,4.20
2023-07-03T12:05:48.649Z,4.45
2023-07-03T12:08:48.842Z,5.10
2023-07-03T12:11:19.990Z,4.60
2023-07-03T12:13:53.171Z,4.75
2023-07-03T12:16:28.943Z,4.60
2023-07-03T12:19:00.791Z,4.55
2023-07-03T12:21:37.286Z,4.55
2023-07-03T12:24:25.932Z,4.10
2023-07-03T12:27:01.786Z,4.60
2023-07-03T12:29:32.213Z,4.53
2023-07-03T12:32:07.113Z,4.70
2023-07-03T12:34:38.266Z,4.40
2023-07-03T12:37:11.158Z,4.43
2023-07-03T12:39:45.731Z,4.90
2023-07-03T12:42:18.604Z,4.30
2023-07-03T12:44:48.454Z,4.63
2023-07-03T12:47:19.922Z,4.50
2023-07-03T12:49:55.286Z,5.32
2023-07-03T12:52:25.718Z,4.88
2023-07-03T12:55:14.072Z,4.95
2023-07-03T12:57:45.663Z,4.80
2023-07-03T13:00:21.355Z,5.45
2023-07-03T13:02:51.153Z,4.85
2023-07-03T13:05:24.567Z,4.57
2023-07-03T13:07:54.949Z,4.60
2023-07-03T13:10:27.731Z,4.77
2023-07-03T13:13:08.658Z,5.13
2023-07-03T13:15:39.800Z,4.70
2023-07-03T13:18:12.584Z,4.90
2023-07-03T13:20:43.184Z,4.80
2023-07-03T13:23:13.262Z,5.78
2023-07-03T13:25:53.953Z,5.10
2023-07-03T13:28:27.717Z,4.45
2023-07-03T13:31:13.219Z,4.70
2023-07-03T13:33:44.595Z,4.80
2023-07-03T13:36:26.478Z,4.70
2023-07-03T13:39:03.891Z,4.30
2023-07-03T13:41:36.607Z,4.00
2023-07-03T13:44:08.796Z,4.78
2023-07-03T13:46:39.934Z,3.45
2023-07-03T13:49:10.269Z,4.25
2023-07-03T13:51:41.936Z,4.80
2023-07-03T13:54:13.366Z,4.07
2023-07-03T13:56:46.593Z,3.90
2023-07-03T13:59:16.867Z,4.18
2023-07-03T14:01:47.229Z,4.00
2023-07-03T14:04:17.059Z,3.42
2023-07-03T14:06:47.593Z,4.45
2023-07-03T14:09:17.334Z,3.92
2023-07-03T14:11:49.708Z,4.10
2023-07-03T14:14:19.563Z,4.82
2023-07-03T14:16:50.547Z,3.60
2023-07-03T14:19:20.588Z,3.80
2023-07-03T14:21:50.785Z,4.60
2023-07-03T14:24:20.710Z,4.30
2023-07-03T14:26:53.105Z,4.10
2023-07-03T14:29:22.959Z,3.60
2023-07-03T14:31:52.785Z,3.87
2023-07-03T14:34:22.591Z,3.67
2023-07-03T14:36:52.496Z,3.87
2023-07-03T14:39:22.243Z,3.92
2023-07-03T14:41:56.027Z,3.22
2023-07-03T14:44:25.950Z,3.60
2023-07-03T14:46:57.001Z,4.00
2023-07-03T14:49:26.918Z,4.00
2023-07-03T14:51:57.093Z,4.10
2023-07-03T14:54:27.531Z,3.75
2023-07-03T14:56:59.976Z,4.10
2023-07-03T14:59:29.821Z,3.92
2023-07-03T15:01:59.666Z,4.78
2023-07-03T15:04:29.998Z,4.32
2023-07-03T15:06:59.888Z,4.05
2023-07-03T15:09:29.622Z,4.40
2023-07-03T15:12:02.013Z,4.57
2023-07-03T15:14:31.848Z,4.28
2023-07-03T15:17:02.480Z,4.78
2023-07-03T15:19:32.547Z,3.75
2023-07-03T15:22:02.509Z,5.10
2023-07-03T15:24:32.241Z,3.85
2023-07-03T15:27:06.320Z,4.00
2023-07-03T15:29:36.181Z,3.80
2023-07-03T15:32:05.942Z,4.20
2023-07-03T15:34:35.725Z,5.43
2023-07-03T15:37:05.529Z,4.60
2023-07-03T15:39:35.326Z,4.65
2023-07-03T15:42:07.966Z,4.90
2023-07-03T15:44:37.772Z,4.00
2023-07-03T15:47:09.182Z,4.32
2023-07-03T15:49:39.417Z,5.13
2023-07-03T15:52:10.784Z,4.43
2023-07-03T15:54:40.628Z,4.80
2023-07-03T15:57:12.960Z,4.97
2023-07-03T15:59:42.821Z,5.10
2023-07-03T16:02:12.599Z,4.55
2023-07-03T16:04:45.625Z,5.40
2023-07-03T16:07:15.554Z,5.40
2023-07-03T16:09:45.480Z,5.13
2023-07-03T16:12:17.913Z,4.43
2023-07-03T16:14:49.072Z,5.10
2023-07-03T16:17:19.184Z,5.55
2023-07-03T16:20:09.753Z,5.10
2023-07-03T16:22:40.661Z,6.07
2023-07-03T16:25:11.365Z,5.80
2023-07-03T16:27:43.952Z,5.22
2023-07-03T16:30:14.435Z,5.80
2023-07-03T16:32:44.236Z,5.70
2023-07-03T16:35:13.976Z,5.75
2023-07-03T16:37:43.758Z,6.07
2023-07-03T16:40:14.537Z,5.35
2023-07-03T16:42:47.026Z,6.40
2023-07-03T16:45:17.562Z,5.30
2023-07-03T16:47:47.306Z,6.18
2023-07-03T16:50:17.345Z,6.50
2023-07-03T16:52:47.571Z,6.00
2023-07-03T16:55:17.556Z,5.70
2023-07-03T16:57:50.099Z,5.63
2023-07-03T17:00:20.266Z,6.22
2023-07-03T17:02:50.149Z,5.78
2023-07-03T17:05:19.963Z,6.38
2023-07-03T17:07:49.707Z,6.47
2023-07-03T17:10:19.541Z,5.72
2023-07-03T17:12:52.173Z,6.20
2023-07-03T17:15:23.245Z,6.55
2023-07-03T17:17:53.083Z,6.63
2023-07-03T17:20:23.050Z,7.35
2023-07-03T17:22:52.780Z,5.75
2023-07-03T17:25:22.565Z,6.05
2023-07-03T17:27:54.885Z,6.00
2023-07-03T17:30:24.704Z,6.40
2023-07-03T17:32:54.534Z,5.93
2023-07-03T17:35:24.343Z,6.00
2023-07-03T17:37:54.234Z,5.70
2023-07-03T17:40:23.973Z,6.20
2023-07-03T17:42:56.549Z,6.75
2023-07-03T17:45:26.327Z,6.30
2023-07-03T17:47:56.097Z,6.05
2023-07-03T17:50:25.924Z,6.28
2023-07-03T17:52:55.672Z,5.65
2023-07-03T17:55:26.556Z,5.73
2023-07-03T17:57:58.934Z,5.95
2023-07-03T18:00:28.796Z,7.22
2023-07-03T18:03:00.354Z,5.83
2023-07-03T18:05:30.636Z,5.70
2023-07-03T18:08:00.447Z,5.70
2023-07-03T18:10:32.220Z,6.03
2023-07-03T18:13:04.777Z,6.60
2023-07-03T18:15:47.214Z,5.97
2023-07-03T18:18:20.903Z,6.70
2023-07-03T18:20:51.009Z,6.03
2023-07-03T18:23:21.370Z,5.85
2023-07-03T18:25:52.085Z,5.95
2023-07-03T18:28:24.821Z,6.50
2023-07-03T18:31:01.308Z,7.00
2023-07-03T18:33:33.306Z,6.50
2023-07-03T18:36:04.752Z,6.15
2023-07-03T18:38:35.583Z,6.40
2023-07-03T18:41:06.971Z,7.20
2023-07-03T18:43:39.378Z,6.20
2023-07-03T18:46:09.671Z,7.13
2023-07-03T18:48:40.336Z,6.70
2023-07-03T18:51:14.937Z,7.70
2023-07-03T18:53:45.320Z,7.10
2023-07-03T18:56:17.148Z,7.28
2023-07-03T18:58:49.564Z,6.95
2023-07-03T19:01:20.895Z,7.17
2023-07-03T19:03:51.274Z,7.10
2023-07-03T19:06:23.489Z,7.10
2023-07-03T19:08:53.258Z,7.25
2023-07-03T19:11:23.035Z,6.60
2023-07-03T19:13:56.110Z,7.53
2023-07-03T19:16:26.181Z,5.97
2023-07-03T19:18:56.490Z,6.40
2023-07-03T19:21:26.263Z,6.78
2023-07-03T19:23:58.551Z,7.70
2023-07-03T19:26:30.557Z,5.85
2023-07-03T19:29:02.929Z,7.10
2023-07-03T19:31:32.937Z,6.65
2023-07-03T19:34:05.212Z,6.18
2023-07-03T19:36:35.208Z,6.65
2023-07-03T19:39:05.010Z,5.77
2023-07-03T19:41:34.775Z,7.03
2023-07-03T19:44:07.213Z,6.10
2023-07-03T19:46:37.064Z,5.60
2023-07-03T19:49:06.890Z,6.32
2023-07-03T19:51:36.771Z,6.35
2023-07-03T19:54:07.338Z,6.70
2023-07-03T19:56:37.310Z,6.30
2023-07-03T19:59:10.984Z,6.70
2023-07-03T20:01:40.861Z,5.78
2023-07-03T20:04:10.622Z,5.75
2023-07-03T20:06:40.477Z,6.60
2023-07-03T20:09:10.239Z,5.63
2023-07-03T20:11:40.190Z,5.85
2023-07-03T20:14:12.673Z,6.55
2023-07-03T20:16:44.063Z,13.20
2023-07-03T20:19:14.604Z,9.85
2023-07-03T20:21:44.397Z,15.00
2023-07-03T20:24:14.629Z,11.25
2023-07-03T20:26:44.446Z,6.93
2023-07-03T20:29:16.903Z,6.45
2023-07-03T20:31:46.743Z,13.90
2023-07-03T20:34:16.604Z,6.20
2023-07-03T20:36:46.363Z,5.95
2023-07-03T20:39:16.143Z,5.28
2023-07-03T20:41:46.013Z,5.32
2023-07-03T20:44:18.529Z,5.68
2023-07-03T20:46:49.168Z,4.23
2023-07-03T20:49:19.202Z,5.18
2023-07-03T20:51:53.920Z,4.18
2023-07-03T20:54:34.444Z,5.00
2023-07-03T20:57:05.440Z,5.70
2023-07-03T20:59:38.938Z,5.00
2023-07-03T21:02:09.743Z,4.45
2023-07-03T21:04:40.930Z,5.30
2023-07-03T21:07:10.755Z,4.40
2023-07-03T21:09:41.164Z,6.00
2023-07-03T21:12:11.433Z,5.07
2023-07-03T21:14:43.969Z,5.18
2023-07-03T21:17:13.837Z,4.97
2023-07-03T21:19:44.079Z,4.05
2023-07-03T21:22:13.892Z,3.92
2023-07-03T21:24:43.710Z,4.50
2023-07-03T21:27:13.586Z,3.58
2023-07-03T21:29:46.442Z,3.60
2023-07-03T21:32:18.264Z,4.13
2023-07-03T21:34:51.415Z,4.28
2023-07-03T21:37:21.883Z,3.30
2023-07-03T21:39:51.759Z,3.50
2023-07-03T21:42:21.578Z,3.63
2023-07-03T21:44:53.997Z,3.75
2023-07-03T21:47:23.893Z,3.20
2023-07-03T21:49:53.768Z,3.83
2023-07-03T21:52:23.554Z,3.80
2023-07-03T21:54:53.365Z,3.80
2023-07-03T21:57:23.207Z,3.50
2023-07-03T21:59:55.609Z,3.50
2023-07-03T22:02:26.291Z,2.90
2023-07-03T22:04:56.308Z,3.20
2023-07-03T22:07:26.076Z,3.40
2023-07-03T22:09:55.845Z,3.00
2023-07-03T22:12:25.917Z,3.30
2023-07-03T22:14:58.234Z,3.47
2023-07-03T22:17:28.111Z,4.10
2023-07-03T22:19:57.817Z,3.05
2023-07-03T22:22:27.979Z,3.40
2023-07-03T22:24:57.783Z,3.72
2023-07-03T22:27:27.627Z,3.10
2023-07-03T22:30:00.329Z,2.92
2023-07-03T22:32:30.758Z,3.17
2023-07-03T22:35:00.626Z,3.08
2023-07-03T22:37:30.413Z,3.00
2023-07-03T22:40:00.198Z,3.30
2023-07-03T22:42:29.995Z,3.03
2023-07-03T22:45:02.359Z,2.67
2023-07-03T22:47:32.682Z,3.00
2023-07-03T22:50:04.126Z,2.88
2023-07-03T22:52:34.490Z,2.83
2023-07-03T22:55:05.686Z,3.20
2023-07-03T22:57:36.749Z,3.10
2023-07-03T23:00:12.205Z,3.10
2023-07-03T23:02:42.403Z,2.92
2023-07-03T23:05:13.792Z,3.40
2023-07-03T23:07:43.744Z,3.58
2023-07-03T23:10:14.946Z,3.50
2023-07-03T23:12:44.768Z,3.20
2023-07-03T23:15:17.268Z,3.72
2023-07-03T23:17:47.367Z,3.20
2023-07-03T23:20:17.582Z,3.30
2023-07-03T23:22:47.410Z,3.20
2023-07-03T23:25:17.371Z,3.47
2023-07-03T23:27:47.427Z,3.38
2023-07-03T23:30:20.045Z,3.38
2023-07-03T23:32:50.119Z,3.28
2023-07-03T23:35:20.051Z,3.30
2023-07-03T23:37:49.782Z,3.33
2023-07-03T23:40:19.929Z,3.30
2023-07-03T23:42:50.919Z,2.80
2023-07-03T23:45:23.261Z,3.63
2023-07-03T23:47:53.217Z,3.00
2023-07-03T23:50:23.045Z,3.88
2023-07-03T23:52:54.241Z,2.97
2023-07-03T23:55:24.143Z,3.15
2023-07-03T23:57:53.851Z,3.17
